createdAt,value
2024-02-02T00:00:16.708Z,100597.75
2024-02-02T00:02:43.624Z,100596.00
2024-02-02T00:05:10.548Z,100580.47
2024-02-02T00:07:39.584Z,100578.66
2024-02-02T00:10:06.678Z,100574.38
2024-02-02T00:12:33.451Z,100578.75
2024-02-02T00:15:00.595Z,100577.91
2024-02-02T00:17:27.365Z,100586.53
2024-02-02T00:19:54.211Z,100591.78
2024-02-02T00:22:22.215Z,100583.94
2024-02-02T00:24:49.071Z,100590.94
2024-02-02T00:27:16.619Z,100583.16
2024-02-02T00:29:47.595Z,100575.34
2024-02-02T00:32:15.165Z,100581.47
2024-02-02T00:34:43.571Z,100569.34
2024-02-02T00:37:10.474Z,100572.00
2024-02-02T00:39:39.129Z,100568.59
2024-02-02T00:42:05.919Z,100572.84
2024-02-02T00:44:32.618Z,100577.34
2024-02-02T00:46:59.270Z,100570.38
2024-02-02T00:49:26.085Z,100571.19
2024-02-02T00:51:53.067Z,100576.34
2024-02-02T00:54:19.934Z,100584.91
2024-02-02T00:56:47.342Z,100592.66
2024-02-02T00:59:14.194Z,100592.66
2024-02-02T01:01:41.150Z,100598.72
2024-02-02T01:04:08.253Z,100583.22
2024-02-02T01:06:35.965Z,100570.25
2024-02-02T01:09:02.876Z,100574.28
2024-02-02T01:11:30.172Z,100574.47
2024-02-02T01:13:57.211Z,100572.75
2024-02-02T01:16:24.575Z,100572.78
2024-02-02T01:18:51.476Z,100566.78
2024-02-02T01:21:18.455Z,100574.69
2024-02-02T01:23:45.143Z,100572.88
2024-02-02T01:26:14.429Z,100574.75
2024-02-02T01:28:41.242Z,100561.72
2024-02-02T01:31:08.010Z,100562.53
2024-02-02T01:33:34.924Z,100556.44
2024-02-02T01:36:01.830Z,100566.72
2024-02-02T01:38:28.669Z,100570.88
2024-02-02T01:40:55.483Z,100562.47
2024-02-02T01:43:24.841Z,100585.66
2024-02-02T01:45:52.336Z,100568.50
2024-02-02T01:48:19.667Z,100569.50
2024-02-02T01:50:46.677Z,100557.34
2024-02-02T01:53:13.622Z,100544.38
2024-02-02T01:55:40.581Z,100549.66
2024-02-02T01:58:07.429Z,100546.03
2024-02-02T02:00:34.547Z,100542.56
2024-02-02T02:03:01.740Z,100547.53
2024-02-02T02:05:28.712Z,100537.34
2024-02-02T02:07:55.591Z,100535.69
2024-02-02T02:10:25.606Z,100540.84
2024-02-02T02:12:52.662Z,100545.06
2024-02-02T02:15:19.749Z,100552.00
2024-02-02T02:17:49.463Z,100551.19
2024-02-02T02:20:22.633Z,100553.00
2024-02-02T02:22:50.354Z,100549.59
2024-02-02T02:25:17.320Z,100547.03
2024-02-02T02:27:45.588Z,100555.56
2024-02-02T02:30:13.541Z,100550.38
2024-02-02T02:32:40.546Z,100553.03
2024-02-02T02:35:07.820Z,100540.19
2024-02-02T02:37:34.591Z,100542.06
2024-02-02T02:40:01.361Z,100540.34
2024-02-02T02:42:30.870Z,100531.59
2024-02-02T02:44:57.979Z,100536.63
2024-02-02T02:47:24.710Z,100542.81
2024-02-02T02:49:51.533Z,100539.50
2024-02-02T02:52:19.323Z,100542.00
2024-02-02T02:54:46.031Z,100542.91
2024-02-02T02:57:12.904Z,100530.03
2024-02-02T02:59:39.681Z,100514.44
2024-02-02T03:02:06.354Z,100524.03
2024-02-02T03:04:33.185Z,100525.75
2024-02-02T03:07:00.227Z,100532.69
2024-02-02T03:09:27.186Z,100542.94
2024-02-02T03:11:54.218Z,100546.34
2024-02-02T03:14:21.124Z,100550.81
2024-02-02T03:16:47.973Z,100556.91
2024-02-02T03:19:15.590Z,100556.19
2024-02-02T03:21:42.368Z,100558.84
2024-02-02T03:24:12.076Z,100561.53
2024-02-02T03:26:39.106Z,100559.75
2024-02-02T03:29:05.892Z,100548.59
2024-02-02T03:31:32.539Z,100557.25
2024-02-02T03:33:59.377Z,100541.69
2024-02-02T03:36:26.335Z,100549.53
2024-02-02T03:38:53.178Z,100542.63
2024-02-02T03:41:19.948Z,100549.53
2024-02-02T03:43:50.136Z,100557.31
2024-02-02T03:46:16.980Z,100552.03
2024-02-02T03:48:43.847Z,100560.78
2024-02-02T03:51:10.750Z,100562.50
2024-02-02T03:53:37.618Z,100559.00
2024-02-02T03:56:04.600Z,100560.78
2024-02-02T03:58:31.416Z,100559.13
2024-02-02T04:00:58.321Z,100547.03
2024-02-02T04:03:25.580Z,100552.28
2024-02-02T04:05:52.535Z,100548.72
2024-02-02T04:08:19.298Z,100557.41
2024-02-02T04:10:46.138Z,100553.16
2024-02-02T04:13:12.961Z,100554.88
2024-02-02T04:15:41.033Z,100560.03
2024-02-02T04:18:10.704Z,100563.34
2024-02-02T04:20:37.530Z,100569.47
2024-02-02T04:23:04.419Z,100569.50
2024-02-02T04:25:31.198Z,100567.59
2024-02-02T04:28:04.494Z,100565.88
2024-02-02T04:30:31.869Z,100565.97
2024-02-02T04:32:58.877Z,100565.09
2024-02-02T04:35:25.807Z,100571.16
2024-02-02T04:37:52.523Z,100581.50
2024-02-02T04:40:19.338Z,100577.13
2024-02-02T04:42:46.067Z,100572.91
2024-02-02T04:45:13.154Z,100563.41
2024-02-02T04:47:39.874Z,100562.53
2024-02-02T04:50:06.628Z,100569.44
2024-02-02T04:52:33.410Z,100569.47
2024-02-02T04:55:00.176Z,100579.06
2024-02-02T04:57:27.055Z,100581.59
2024-02-02T04:59:55.708Z,100580.69
2024-02-02T05:02:22.468Z,100572.97
2024-02-02T05:04:49.282Z,100579.91
2024-02-02T05:07:16.059Z,100577.28
2024-02-02T05:09:42.778Z,100569.53
2024-02-02T05:12:38.356Z,100568.66
2024-02-02T05:15:06.648Z,100567.88
2024-02-02T05:17:33.680Z,100560.97
2024-02-02T05:20:00.656Z,100565.19
2024-02-02T05:22:27.340Z,100553.06
2024-02-02T05:24:54.057Z,100551.38
2024-02-02T05:27:20.855Z,100543.50
2024-02-02T05:29:49.884Z,100535.75
2024-02-02T05:32:16.643Z,100532.38
2024-02-02T05:34:43.961Z,100547.47
2024-02-02T05:37:11.210Z,100549.59
2024-02-02T05:39:38.000Z,100545.38
2024-02-02T05:42:05.362Z,100543.69
2024-02-02T05:44:32.242Z,100553.28
2024-02-02T05:46:58.961Z,100556.72
2024-02-02T05:49:25.969Z,100561.00
2024-02-02T05:51:54.244Z,100565.44
2024-02-02T05:54:21.107Z,100565.47
2024-02-02T05:56:47.978Z,100575.03
2024-02-02T05:59:14.779Z,100582.81
2024-02-02T06:01:41.696Z,100588.91
2024-02-02T06:04:11.068Z,100588.97
2024-02-02T06:06:44.960Z,100580.28
2024-02-02T06:09:12.686Z,100568.97
2024-02-02T06:11:39.875Z,100570.66
2024-02-02T06:14:06.927Z,100566.28
2024-02-02T06:16:33.957Z,100567.19
2024-02-02T06:19:01.067Z,100549.13
2024-02-02T06:21:27.969Z,100552.63
2024-02-02T06:23:54.756Z,100543.97
2024-02-02T06:26:21.571Z,100548.34
2024-02-02T06:28:48.464Z,100536.97
2024-02-02T06:31:15.351Z,100538.44
2024-02-02T06:33:42.726Z,100530.91
2024-02-02T06:36:12.351Z,100519.69
2024-02-02T06:38:42.716Z,100518.88
2024-02-02T06:41:12.364Z,100516.94
2024-02-02T06:43:49.972Z,100516.16
2024-02-02T06:46:31.831Z,100510.97
2024-02-02T06:49:02.495Z,100510.09
2024-02-02T06:51:29.662Z,100511.09
2024-02-02T06:53:58.408Z,100504.19
2024-02-02T06:56:39.925Z,100519.75
2024-02-02T06:59:13.265Z,100507.69
2024-02-02T07:01:42.071Z,100508.56
2024-02-02T07:04:13.807Z,100499.06
2024-02-02T07:06:41.886Z,100506.75
2024-02-02T07:09:21.201Z,100510.38
2024-02-02T07:12:03.655Z,100513.81
2024-02-02T07:14:45.612Z,100504.31
2024-02-02T07:17:25.394Z,100496.50
2024-02-02T07:19:52.977Z,100499.00
2024-02-02T07:22:42.886Z,100491.38
2024-02-02T07:25:12.790Z,100501.84
2024-02-02T07:28:06.394Z,100495.75
2024-02-02T07:30:45.594Z,100495.78
2024-02-02T07:33:36.863Z,100503.56
2024-02-02T07:36:05.511Z,100513.16
2024-02-02T07:38:47.509Z,100505.31
2024-02-02T07:41:18.541Z,100499.19
2024-02-02T07:43:46.248Z,100504.56
2024-02-02T07:46:15.910Z,100507.25
2024-02-02T07:48:44.619Z,100492.44
2024-02-02T07:51:12.804Z,100470.84
2024-02-02T07:53:40.169Z,100477.75
2024-02-02T07:56:07.335Z,100472.56
2024-02-02T07:58:34.015Z,100471.63
2024-02-02T08:01:00.828Z,100462.22
2024-02-02T08:03:28.131Z,100463.88
2024-02-02T08:05:55.131Z,100464.84
2024-02-02T08:08:22.060Z,100468.31
2024-02-02T08:10:48.882Z,100471.03
2024-02-02T08:13:17.283Z,100478.84
2024-02-02T08:15:44.559Z,100480.66
2024-02-02T08:18:14.639Z,100489.38
2024-02-02T08:20:41.735Z,100492.78
2024-02-02T08:23:08.428Z,100491.94
2024-02-02T08:25:35.282Z,100491.94
2024-02-02T08:28:02.865Z,100493.75
2024-02-02T08:30:29.786Z,100490.28
2024-02-02T08:32:57.084Z,100482.41
2024-02-02T08:35:26.405Z,100477.19
2024-02-02T08:38:01.673Z,100470.25
2024-02-02T08:40:48.900Z,100475.53
2024-02-02T08:43:24.122Z,100481.53
2024-02-02T08:46:12.482Z,100492.91
2024-02-02T08:48:49.928Z,100484.22
2024-02-02T08:51:28.551Z,100462.50
2024-02-02T08:54:07.496Z,100456.41
2024-02-02T08:56:34.479Z,100460.78
2024-02-02T08:59:01.337Z,100457.25
2024-02-02T09:01:31.240Z,100452.06
2024-02-02T09:04:00.292Z,100457.25
2024-02-02T09:06:45.427Z,100452.94
2024-02-02T09:09:15.963Z,100457.25
2024-02-02T09:11:48.736Z,100451.97
2024-02-02T09:14:19.380Z,100445.00
2024-02-02T09:16:51.618Z,100433.69
2024-02-02T09:19:25.648Z,100436.31
2024-02-02T09:21:52.880Z,100432.75
2024-02-02T09:24:30.751Z,100428.38
2024-02-02T09:26:59.339Z,100429.25
2024-02-02T09:29:26.456Z,100427.47
2024-02-02T09:31:53.209Z,100407.56
2024-02-02T09:34:25.937Z,100406.63
2024-02-02T09:36:54.533Z,100417.97
2024-02-02T09:40:07.010Z,100426.59
2024-02-02T09:42:47.687Z,100432.66
2024-02-02T09:45:42.914Z,100426.47
2024-02-02T09:48:33.674Z,100436.13
2024-02-02T09:51:11.787Z,100438.75
2024-02-02T09:54:17.010Z,100446.44
2024-02-02T09:57:18.324Z,100440.28
2024-02-02T09:59:55.820Z,100446.53
2024-02-02T10:02:34.616Z,100441.34
2024-02-02T10:05:23.862Z,100448.19
2024-02-02T10:08:06.191Z,100442.91
2024-02-02T10:10:51.733Z,100432.50
2024-02-02T10:13:21.620Z,100433.16
2024-02-02T10:16:33.557Z,100434.94
2024-02-02T10:19:33.076Z,100436.69
2024-02-02T10:22:12.097Z,100435.00
2024-02-02T10:24:50.987Z,100424.53
2024-02-02T10:27:49.118Z,100427.09
2024-02-02T10:30:15.932Z,100409.28
2024-02-02T10:33:24.116Z,100411.84
2024-02-02T10:36:06.304Z,100417.84
2024-02-02T10:38:38.671Z,100414.25
2024-02-02T10:42:13.404Z,100418.03
2024-02-02T10:44:55.113Z,100395.03
2024-02-02T10:47:25.861Z,100387.88
2024-02-02T10:50:24.927Z,100390.78
2024-02-02T10:53:39.932Z,100383.28
2024-02-02T10:56:23.558Z,100379.03
2024-02-02T10:59:09.402Z,100367.69
2024-02-02T11:01:55.953Z,100363.13
2024-02-02T11:04:38.337Z,100356.81
2024-02-02T11:07:17.412Z,100366.63
2024-02-02T11:10:06.610Z,100365.88
2024-02-02T11:12:58.809Z,100355.19
2024-02-02T11:15:37.789Z,100348.03
2024-02-02T11:29:12.420Z,100328.34
2024-02-02T11:31:51.605Z,100330.00
2024-02-02T11:34:44.162Z,100328.88
2024-02-02T11:37:40.700Z,100322.81
2024-02-02T11:40:13.637Z,100321.75
2024-02-02T11:42:41.933Z,100320.84
2024-02-02T11:45:14.936Z,100323.31
2024-02-02T11:47:54.288Z,100318.94
2024-02-02T11:50:29.992Z,100315.31
2024-02-02T11:53:24.050Z,100324.22
2024-02-02T11:55:56.769Z,100310.28
2024-02-02T11:58:25.299Z,100312.88
2024-02-02T12:01:07.142Z,100313.56
2024-02-02T12:03:51.187Z,100303.31
2024-02-02T12:06:20.743Z,100309.81
2024-02-02T12:09:13.394Z,100309.16
2024-02-02T12:11:44.507Z,100317.50
2024-02-02T12:14:40.750Z,100306.03
2024-02-02T12:17:12.294Z,100300.56
2024-02-02T12:19:39.254Z,100300.09
2024-02-02T12:22:06.170Z,100293.19
2024-02-02T12:24:33.103Z,100290.31
2024-02-02T12:27:00.629Z,100297.06
2024-02-02T12:29:48.784Z,100302.88
2024-02-02T12:32:15.742Z,100296.88
2024-02-02T12:34:43.074Z,100296.66
2024-02-02T12:37:11.303Z,100288.78
2024-02-02T12:39:38.696Z,100280.78
2024-02-02T12:42:07.815Z,100278.41
2024-02-02T12:44:34.844Z,100281.69
2024-02-02T12:47:01.839Z,100275.75
2024-02-02T12:49:28.803Z,100277.38
2024-02-02T12:51:57.709Z,100269.91
2024-02-02T12:54:25.154Z,100270.41
2024-02-02T12:56:52.157Z,100257.13
2024-02-02T12:59:41.231Z,100255.25
2024-02-02T13:02:08.302Z,100234.75
2024-02-02T13:04:35.191Z,100242.66
2024-02-02T13:07:02.248Z,100239.09
2024-02-02T13:09:33.264Z,100225.22
2024-02-02T13:12:01.907Z,100234.91
2024-02-02T13:14:33.768Z,100233.97
2024-02-02T13:17:06.179Z,100251.59
2024-02-02T13:19:37.761Z,100244.06
2024-02-02T13:22:04.752Z,100246.28
2024-02-02T13:24:32.485Z,100247.00
2024-02-02T13:27:06.618Z,100234.81
2024-02-02T13:29:39.692Z,100238.44
2024-02-02T13:32:17.600Z,100235.66
2024-02-02T13:34:44.793Z,100235.03
2024-02-02T13:37:25.913Z,100238.38
2024-02-02T13:39:58.532Z,100228.06
2024-02-02T13:42:25.968Z,100244.66
2024-02-02T13:44:54.106Z,100223.75
2024-02-02T13:47:22.071Z,100223.38
2024-02-02T13:49:54.195Z,100225.66
2024-02-02T13:52:21.104Z,100228.94
2024-02-02T13:54:48.411Z,100224.69
2024-02-02T13:57:16.799Z,100217.63
2024-02-02T13:59:44.816Z,100211.44
2024-02-02T14:02:11.518Z,100206.69
2024-02-02T14:04:40.307Z,100202.59
2024-02-02T14:07:17.237Z,100199.78
2024-02-02T14:09:44.235Z,100192.31
2024-02-02T14:12:12.157Z,100196.63
2024-02-02T14:14:39.055Z,100194.81
2024-02-02T14:17:06.864Z,100197.28
2024-02-02T14:19:34.908Z,100183.72
2024-02-02T14:22:09.455Z,100194.44
2024-02-02T14:24:51.395Z,100191.72
2024-02-02T14:27:18.744Z,100177.44
2024-02-02T14:29:45.963Z,100194.22
2024-02-02T14:32:15.076Z,100183.47
2024-02-02T14:34:42.081Z,100180.78
2024-02-02T14:37:10.004Z,100184.31
2024-02-02T14:39:37.137Z,100182.81
2024-02-02T14:42:04.955Z,100177.16
2024-02-02T14:44:32.034Z,100173.75
2024-02-02T14:47:03.049Z,100167.00
2024-02-02T14:49:30.325Z,100174.38
2024-02-02T14:51:57.319Z,100155.94
2024-02-02T14:54:25.042Z,100150.88
2024-02-02T14:56:53.057Z,100148.25
2024-02-02T14:59:30.365Z,100144.91
2024-02-02T15:01:58.013Z,100144.78
2024-02-02T15:04:25.191Z,100139.72
2024-02-02T15:06:53.031Z,100139.44
2024-02-02T15:09:20.822Z,100124.81
2024-02-02T15:11:48.086Z,100129.16
2024-02-02T15:14:15.900Z,100128.22
2024-02-02T15:16:42.855Z,100129.09
2024-02-02T15:19:10.356Z,100138.28
2024-02-02T15:21:39.485Z,100120.88
2024-02-02T15:24:06.841Z,100133.66
2024-02-02T15:26:38.671Z,100114.47
2024-02-02T15:29:05.913Z,100116.09
2024-02-02T15:31:34.133Z,100111.81
2024-02-02T15:34:05.108Z,100115.28
2024-02-02T15:36:34.665Z,100107.38
2024-02-02T15:39:15.309Z,100121.66
2024-02-02T15:41:48.447Z,100120.66
2024-02-02T15:44:15.321Z,100119.06
2024-02-02T15:46:42.355Z,100126.09
2024-02-02T15:49:09.991Z,100129.59
2024-02-02T15:51:37.162Z,100121.81
2024-02-02T15:54:06.605Z,100137.50
2024-02-02T15:56:33.439Z,100121.56
2024-02-02T15:59:02.310Z,100127.78
2024-02-02T16:01:29.224Z,100133.03
2024-02-02T16:03:56.354Z,100125.47
2024-02-02T16:06:23.322Z,100122.91
2024-02-02T16:08:52.341Z,100114.81
2024-02-02T16:11:20.623Z,100106.88
2024-02-02T16:13:47.861Z,100115.72
2024-02-02T16:16:14.885Z,100111.75
2024-02-02T16:18:41.786Z,100104.50
2024-02-02T16:21:08.757Z,100110.41
2024-02-02T16:23:36.607Z,100104.50
2024-02-02T16:26:03.968Z,100101.97
2024-02-02T16:28:31.230Z,100106.34
2024-02-02T16:30:58.154Z,100111.53
2024-02-02T16:33:25.134Z,100121.91
2024-02-02T16:35:52.044Z,100110.06
2024-02-02T16:38:18.867Z,100123.03
2024-02-02T16:40:45.698Z,100116.09
2024-02-02T16:43:12.494Z,100111.69
2024-02-02T16:45:41.437Z,100111.16
2024-02-02T16:48:09.441Z,100109.50
2024-02-02T16:50:39.157Z,100116.41
2024-02-02T16:53:07.137Z,100114.59
2024-02-02T16:55:34.130Z,100119.78
2024-02-02T16:58:01.288Z,100131.41
2024-02-02T17:00:28.312Z,100120.09
2024-02-02T17:02:55.578Z,100118.34
2024-02-02T17:05:22.550Z,100109.81
2024-02-02T17:07:49.557Z,100112.41
2024-02-02T17:10:16.392Z,100109.75
2024-02-02T17:12:43.542Z,100102.53
2024-02-02T17:15:18.469Z,100106.19
2024-02-02T17:17:47.907Z,100096.56
2024-02-02T17:20:16.908Z,100093.03
2024-02-02T17:22:45.447Z,100097.75
2024-02-02T17:25:12.325Z,100087.09
2024-02-02T17:27:39.221Z,100093.22
2024-02-02T17:30:06.699Z,100105.41
2024-02-02T17:32:38.708Z,100103.50
2024-02-02T17:35:07.556Z,100103.59
2024-02-02T17:37:34.572Z,100118.44
2024-02-02T17:40:01.460Z,100114.94
2024-02-02T17:42:28.245Z,100114.06
2024-02-02T17:44:55.031Z,100124.31
2024-02-02T17:47:22.396Z,100127.81
2024-02-02T17:49:51.985Z,100134.81
2024-02-02T17:52:19.536Z,100128.72
2024-02-02T17:54:46.488Z,100128.78
2024-02-02T17:57:13.609Z,100131.53
2024-02-02T17:59:40.716Z,100127.38
2024-02-02T18:02:08.837Z,100124.59
2024-02-02T18:04:35.743Z,100128.13
2024-02-02T18:07:02.592Z,100113.38
2024-02-02T18:09:29.290Z,100119.47
2024-02-02T18:11:56.056Z,100100.25
2024-02-02T18:14:24.961Z,100095.94
2024-02-02T18:16:51.801Z,100090.63
2024-02-02T18:19:18.688Z,100080.88
2024-02-02T18:21:45.691Z,100075.25
2024-02-02T18:24:12.771Z,100076.84
2024-02-02T18:26:39.666Z,100076.09
2024-02-02T18:29:06.739Z,100075.84
2024-02-02T18:31:33.590Z,100078.53
2024-02-02T18:34:00.709Z,100076.84
2024-02-02T18:36:27.928Z,100095.22
2024-02-02T18:38:54.770Z,100101.03
2024-02-02T18:41:27.565Z,100086.16
2024-02-02T18:43:54.377Z,100088.00
2024-02-02T18:46:26.174Z,100102.06
2024-02-02T18:51:37.925Z,100110.63
2024-02-02T18:54:05.131Z,100107.06
2024-02-02T18:56:32.460Z,100108.81
2024-02-02T18:58:59.196Z,100107.06
2024-02-02T19:01:30.596Z,100105.31
2024-02-02T19:03:57.351Z,100095.59
2024-02-02T19:06:24.205Z,100098.34
2024-02-02T19:08:51.218Z,100098.38
2024-02-02T19:11:24.818Z,100088.81
2024-02-02T19:13:51.720Z,100088.78
2024-02-02T19:16:23.085Z,100106.28
2024-02-02T19:18:50.862Z,100100.03
2024-02-02T19:21:22.484Z,100107.28
2024-02-02T19:23:50.151Z,100099.28
2024-02-02T19:26:17.874Z,100109.00
2024-02-02T19:28:45.296Z,100118.56
2024-02-02T19:31:25.784Z,100121.25
2024-02-02T19:33:53.201Z,100118.44
2024-02-02T19:36:27.547Z,100120.25
2024-02-02T19:38:55.736Z,100119.50
2024-02-02T19:41:24.330Z,100120.25
2024-02-02T19:43:51.978Z,100118.53
2024-02-02T19:46:29.113Z,100120.16
2024-02-02T19:48:57.241Z,100123.97
2024-02-02T19:51:26.242Z,100129.41
2024-02-02T19:53:53.727Z,100132.78
2024-02-02T19:56:20.507Z,100121.19
2024-02-02T19:58:48.387Z,100128.41
2024-02-02T20:01:19.642Z,100124.59
2024-02-02T20:03:48.444Z,100130.72
2024-02-02T20:06:17.650Z,100139.41
2024-02-02T20:08:46.019Z,100139.19
2024-02-02T20:11:17.519Z,100142.72
2024-02-02T20:13:45.067Z,100140.16
2024-02-02T20:16:16.730Z,100135.69
2024-02-02T20:18:43.925Z,100139.88
2024-02-02T20:21:18.056Z,100140.78
2024-02-02T20:23:45.735Z,100151.31
2024-02-02T20:26:18.368Z,100148.53
2024-02-02T20:28:46.312Z,100157.41
2024-02-02T20:31:13.168Z,100144.06
2024-02-02T20:33:40.034Z,100165.19
2024-02-02T20:36:07.677Z,100169.53
2024-02-02T20:38:34.907Z,100171.16
2024-02-02T20:41:06.047Z,100171.94
2024-02-02T20:43:33.156Z,100172.97
2024-02-02T20:46:00.039Z,100163.31
2024-02-02T20:48:26.833Z,100168.72
2024-02-02T20:50:53.979Z,100165.09
2024-02-02T20:53:20.647Z,100167.69
2024-02-02T20:55:47.354Z,100170.38
2024-02-02T20:58:14.142Z,100168.47
2024-02-02T21:00:41.088Z,100168.53
2024-02-02T21:03:09.264Z,100177.31
2024-02-02T21:05:36.698Z,100178.16
2024-02-02T21:08:04.528Z,100172.06
2024-02-02T21:10:32.075Z,100180.75
2024-02-02T21:12:59.294Z,100171.97
2024-02-02T21:15:30.026Z,100172.88
2024-02-02T21:17:58.143Z,100170.25
2024-02-02T21:20:32.104Z,100172.94
2024-02-02T21:22:58.916Z,100183.53
2024-02-02T21:25:25.685Z,100186.81
2024-02-02T21:27:52.645Z,100195.63
2024-02-02T21:30:19.518Z,100196.38
2024-02-02T21:32:46.290Z,100190.34
2024-02-02T21:35:13.756Z,100203.34
2024-02-02T21:37:40.528Z,100189.72
2024-02-02T21:40:07.678Z,100193.75
2024-02-02T21:42:34.446Z,100199.22
2024-02-02T21:45:01.139Z,100196.50
2024-02-02T21:47:27.868Z,100187.66
2024-02-02T21:49:54.773Z,100195.44
2024-02-02T21:52:21.689Z,100198.19
2024-02-02T21:54:48.535Z,100192.22
2024-02-02T21:57:15.360Z,100184.34
2024-02-02T21:59:42.052Z,100186.03
2024-02-02T22:02:08.784Z,100181.63
2024-02-02T22:04:35.469Z,100186.16
2024-02-02T22:07:04.507Z,100188.56
2024-02-02T22:09:31.659Z,100199.00
2024-02-02T22:11:58.510Z,100195.63
2024-02-02T22:14:25.782Z,100204.34
2024-02-02T22:16:52.474Z,100200.72
2024-02-02T22:19:19.257Z,100201.75
2024-02-02T22:21:47.190Z,100206.06
2024-02-02T22:24:14.425Z,100206.22
2024-02-02T22:26:41.093Z,100206.25
2024-02-02T22:29:07.747Z,100206.88
2024-02-02T22:31:35.533Z,100204.25
2024-02-02T22:34:03.051Z,100204.31
2024-02-02T22:36:32.991Z,100207.69
2024-02-02T22:38:59.717Z,100199.91
2024-02-02T22:41:33.451Z,100206.97
2024-02-02T22:44:02.584Z,100187.75
2024-02-02T22:46:34.143Z,100198.38
2024-02-02T22:49:01.761Z,100194.00
2024-02-02T22:51:28.687Z,100192.28
2024-02-02T22:53:55.341Z,100200.91
2024-02-02T22:56:21.954Z,100201.13
2024-02-02T22:58:48.706Z,100195.94
2024-02-02T23:01:15.534Z,100195.69
2024-02-02T23:03:42.765Z,100190.59
2024-02-02T23:06:09.650Z,100198.41
2024-02-02T23:08:36.429Z,100198.34
2024-02-02T23:11:03.366Z,100195.88
2024-02-02T23:13:30.060Z,100202.00
2024-02-02T23:15:59.197Z,100191.28
2024-02-02T23:18:27.596Z,100185.31
2024-02-02T23:20:59.331Z,100183.63
2024-02-02T23:23:26.902Z,100185.31
2024-02-02T23:25:53.722Z,100185.31
2024-02-02T23:28:20.404Z,100187.81
2024-02-02T23:30:47.419Z,100181.50
2024-02-02T23:33:14.473Z,100178.22
2024-02-02T23:35:42.524Z,100177.25
2024-02-02T23:38:09.463Z,100179.09
2024-02-02T23:40:36.301Z,100180.72
2024-02-02T23:43:03.132Z,100180.69
2024-02-02T23:45:30.430Z,100170.22
2024-02-02T23:47:57.253Z,100170.44
2024-02-02T23:50:23.942Z,100159.22
2024-02-02T23:52:50.638Z,100166.00
2024-02-02T23:55:17.475Z,100169.56
2024-02-02T23:57:44.549Z,100166.94
